createdAt,value
2023-02-28T00:00:16.514Z,-1.77
2023-02-28T00:00:49.512Z,-1.77
2023-02-28T00:01:20.304Z,-1.77
2023-02-28T00:01:53.317Z,-1.77
2023-02-28T00:02:24.248Z,-1.77
2023-02-28T00:02:57.347Z,-1.77
2023-02-28T00:03:28.331Z,-1.77
2023-02-28T00:04:01.601Z,-1.77
2023-02-28T00:04:32.312Z,-1.72
2023-02-28T00:05:05.058Z,-1.72
2023-02-28T00:05:36.163Z,-1.72
2023-02-28T00:06:09.218Z,-1.72
2023-02-28T00:06:40.180Z,-1.72
2023-02-28T00:07:12.967Z,-1.72
2023-02-28T00:07:44.132Z,-1.72
2023-02-28T00:08:17.107Z,-1.72
2023-02-28T00:08:47.840Z,-1.72
2023-02-28T00:09:20.952Z,-1.61
2023-02-28T00:09:51.896Z,-1.61
2023-02-28T00:10:24.825Z,-1.61
2023-02-28T00:10:55.861Z,-1.61
2023-02-28T00:11:36.621Z,-1.61
2023-02-28T00:11:59.850Z,-1.61
2023-02-28T00:12:31.782Z,-1.61
2023-02-28T00:13:03.718Z,-1.61
2023-02-28T00:13:35.746Z,-1.61
2023-02-28T00:14:07.773Z,-1.61
2023-02-28T00:14:39.748Z,-1.61
2023-02-28T00:15:11.786Z,-1.61
2023-02-28T00:15:43.611Z,-1.61
2023-02-28T00:16:15.764Z,-1.61
2023-02-28T00:16:47.541Z,-1.61
2023-02-28T00:17:19.513Z,-1.50
2023-02-28T00:17:51.676Z,-1.50
2023-02-28T00:18:23.545Z,-1.50
2023-02-28T00:18:55.374Z,-1.50
2023-02-28T00:19:27.446Z,-1.50
2023-02-28T00:19:59.518Z,-1.50
2023-02-28T00:20:31.526Z,-1.50
2023-02-28T00:21:03.338Z,-1.50
2023-02-28T00:21:35.342Z,-1.50
2023-02-28T00:22:07.350Z,-1.50
2023-02-28T00:22:39.449Z,-1.50
2023-02-28T00:23:11.231Z,-1.50
2023-02-28T00:23:43.246Z,-1.50
2023-02-28T00:24:15.254Z,-1.50
2023-02-28T00:24:47.295Z,-1.50
2023-02-28T00:25:19.168Z,-1.38
2023-02-28T00:25:51.193Z,-1.38
2023-02-28T00:26:23.214Z,-1.38
2023-02-28T00:26:55.266Z,-1.38
2023-02-28T00:27:27.117Z,-1.38
2023-02-28T00:27:59.132Z,-1.38
2023-02-28T00:28:31.193Z,-1.38
2023-02-28T00:29:03.147Z,-1.38
2023-02-28T00:29:35.008Z,-1.38
2023-02-28T00:30:07.562Z,-1.38
2023-02-28T00:30:39.114Z,-1.27
2023-02-28T00:31:11.197Z,-1.27
2023-02-28T00:31:42.917Z,-1.38
2023-02-28T00:32:14.933Z,-1.38
2023-02-28T00:32:46.988Z,-1.38
2023-02-28T00:33:18.820Z,-1.38
2023-02-28T00:33:51.050Z,-1.38
2023-02-28T00:34:22.830Z,-1.38
2023-02-28T00:34:54.984Z,-1.38
2023-02-28T00:35:26.743Z,-1.38
2023-02-28T00:35:58.818Z,-1.38
2023-02-28T00:36:30.833Z,-1.38
2023-02-28T00:37:02.799Z,-1.38
2023-02-28T00:37:34.638Z,-1.50
2023-02-28T00:38:06.635Z,-1.50
2023-02-28T00:38:38.702Z,-1.50
2023-02-28T00:39:10.776Z,-1.50
2023-02-28T00:39:42.514Z,-1.50
2023-02-28T00:40:14.569Z,-1.50
2023-02-28T00:40:46.570Z,-1.50
2023-02-28T00:41:18.606Z,-1.50
2023-02-28T00:41:50.514Z,-1.50
2023-02-28T00:42:22.473Z,-1.50
2023-02-28T00:42:54.626Z,-1.50
2023-02-28T00:43:26.561Z,-1.50
2023-02-28T00:43:58.386Z,-1.50
2023-02-28T00:44:30.550Z,-1.50
2023-02-28T00:45:02.583Z,-1.50
2023-02-28T00:45:34.489Z,-1.50
2023-02-28T00:46:06.364Z,-1.38
2023-02-28T00:46:38.325Z,-1.38
2023-02-28T00:47:10.374Z,-1.38
2023-02-28T00:47:42.378Z,-1.38
2023-02-28T00:48:14.172Z,-1.38
2023-02-28T00:48:46.221Z,-1.38
2023-02-28T00:49:18.292Z,-1.38
2023-02-28T00:49:50.284Z,-1.38
2023-02-28T00:50:22.117Z,-1.38
2023-02-28T00:50:54.154Z,-1.38
2023-02-28T00:51:26.255Z,-1.38
2023-02-28T00:51:58.312Z,-1.38
2023-02-28T00:52:30.017Z,-1.27
2023-02-28T00:53:02.265Z,-1.27
2023-02-28T00:53:34.095Z,-1.27
2023-02-28T00:54:06.200Z,-1.27
2023-02-28T00:54:38.034Z,-1.27
2023-02-28T00:55:09.975Z,-1.27
2023-02-28T00:55:41.984Z,-1.22
2023-02-28T00:56:13.829Z,-1.22
2023-02-28T00:56:45.861Z,-1.22
2023-02-28T00:57:17.867Z,-1.22
2023-02-28T00:57:49.951Z,-1.27
2023-02-28T00:58:21.822Z,-1.27
2023-02-28T00:58:53.765Z,-1.27
2023-02-28T00:59:25.812Z,-1.27
2023-02-28T00:59:57.968Z,-1.27
2023-02-28T01:00:29.791Z,-1.27
2023-02-28T01:01:01.760Z,-1.27
2023-02-28T01:01:34.130Z,-1.27
2023-02-28T01:02:05.758Z,-1.27
2023-02-28T01:02:37.590Z,-1.27
2023-02-28T01:03:09.623Z,-1.27
2023-02-28T01:03:41.601Z,-1.27
2023-02-28T01:04:13.710Z,-1.27
2023-02-28T01:04:45.482Z,-1.27
2023-02-28T01:05:17.499Z,-1.27
2023-02-28T01:05:49.533Z,-1.27
2023-02-28T01:06:21.413Z,-1.27
2023-02-28T01:06:53.437Z,-1.27
2023-02-28T01:07:25.467Z,-1.27
2023-02-28T01:07:57.560Z,-1.27
2023-02-28T01:08:29.503Z,-1.27
2023-02-28T01:09:01.338Z,-1.27
2023-02-28T01:09:33.850Z,-1.27
2023-02-28T01:10:05.415Z,-1.27
2023-02-28T01:10:37.288Z,-1.27
2023-02-28T01:11:09.274Z,-1.38
2023-02-28T01:11:41.280Z,-1.38
2023-02-28T01:12:13.313Z,-1.38
2023-02-28T01:12:45.153Z,-1.38
2023-02-28T01:13:17.256Z,-1.38
2023-02-28T01:13:49.206Z,-1.38
2023-02-28T01:14:21.668Z,-1.38
2023-02-28T01:14:53.047Z,-1.38
2023-02-28T01:15:25.347Z,-1.38
2023-02-28T01:15:57.213Z,-1.38
2023-02-28T01:16:29.250Z,-1.38
2023-02-28T01:17:01.198Z,-1.38
2023-02-28T01:17:33.687Z,-1.38
2023-02-28T01:18:05.006Z,-1.38
2023-02-28T01:18:37.055Z,-1.38
2023-02-28T01:19:08.862Z,-1.38
2023-02-28T01:19:40.961Z,-1.38
2023-02-28T01:20:12.986Z,-1.38
2023-02-28T01:20:44.950Z,-1.38
2023-02-28T01:21:16.789Z,-1.38
2023-02-28T01:21:48.855Z,-1.38
2023-02-28T01:22:21.071Z,-1.38
2023-02-28T01:22:53.046Z,-1.38
2023-02-28T01:23:25.081Z,-1.38
2023-02-28T01:23:56.850Z,-1.38
2023-02-28T01:24:28.794Z,-1.38
2023-02-28T01:25:00.925Z,-1.38
2023-02-28T01:25:32.662Z,-1.38
2023-02-28T01:26:04.644Z,-1.38
2023-02-28T01:26:36.762Z,-1.38
2023-02-28T01:27:08.729Z,-1.38
2023-02-28T01:27:40.724Z,-1.38
2023-02-28T01:28:12.575Z,-1.38
2023-02-28T01:28:44.590Z,-1.38
2023-02-28T01:29:16.680Z,-1.38
2023-02-28T01:29:48.439Z,-1.38
2023-02-28T01:30:20.700Z,-1.38
2023-02-28T01:30:52.904Z,-1.38
2023-02-28T01:31:24.651Z,-1.38
2023-02-28T01:31:56.605Z,-1.38
2023-02-28T01:32:28.374Z,-1.38
2023-02-28T01:33:00.705Z,-1.38
2023-02-28T01:33:32.725Z,-1.38
2023-02-28T01:34:04.555Z,-1.38
2023-02-28T01:34:36.287Z,-1.38
2023-02-28T01:35:08.414Z,-1.38
2023-02-28T01:35:40.667Z,-1.38
2023-02-28T01:36:12.457Z,-1.38
2023-02-28T01:36:44.309Z,-1.38
2023-02-28T01:37:16.239Z,-1.38
2023-02-28T01:37:48.265Z,-1.38
2023-02-28T01:38:22.894Z,-1.38
2023-02-28T01:38:52.123Z,-1.38
2023-02-28T01:39:24.171Z,-1.38
2023-02-28T01:39:56.203Z,-1.50
2023-02-28T01:40:28.089Z,-1.50
2023-02-28T01:41:00.039Z,-1.50
2023-02-28T01:41:32.479Z,-1.50
2023-02-28T01:42:03.904Z,-1.50
2023-02-28T01:42:35.951Z,-1.50
2023-02-28T01:43:07.959Z,-1.50
2023-02-28T01:43:39.980Z,-1.50
2023-02-28T01:44:11.787Z,-1.50
2023-02-28T01:44:43.808Z,-1.50
2023-02-28T01:45:15.991Z,-1.50
2023-02-28T01:45:47.883Z,-1.50
2023-02-28T01:46:19.820Z,-1.50
2023-02-28T01:46:51.736Z,-1.50
2023-02-28T01:47:24.025Z,-1.50
2023-02-28T01:47:55.982Z,-1.50
2023-02-28T01:48:27.727Z,-1.50
2023-02-28T01:48:59.756Z,-1.50
2023-02-28T01:49:31.674Z,-1.61
2023-02-28T01:50:03.742Z,-1.61
2023-02-28T01:50:35.652Z,-1.50
2023-02-28T01:51:07.683Z,-1.50
2023-02-28T01:51:39.596Z,-1.50
2023-02-28T01:52:11.617Z,-1.50
2023-02-28T01:52:43.469Z,-1.50
2023-02-28T01:53:15.485Z,-1.61
2023-02-28T01:53:47.551Z,-1.61
2023-02-28T01:54:19.555Z,-1.61
2023-02-28T01:54:51.382Z,-1.72
2023-02-28T01:55:23.482Z,-1.72
2023-02-28T01:55:55.459Z,-1.72
2023-02-28T01:56:27.452Z,-1.72
2023-02-28T01:56:59.298Z,-1.72
2023-02-28T01:57:31.311Z,-1.72
2023-02-28T01:58:03.371Z,-1.72
2023-02-28T01:58:35.377Z,-1.72
2023-02-28T01:59:07.198Z,-1.72
2023-02-28T01:59:39.253Z,-1.72
2023-02-28T02:00:11.778Z,-1.72
2023-02-28T02:00:43.276Z,-1.72
2023-02-28T02:01:15.102Z,-1.72
2023-02-28T02:01:47.272Z,-1.72
2023-02-28T02:02:19.151Z,-1.72
2023-02-28T02:02:51.367Z,-1.72
2023-02-28T02:03:23.049Z,-1.77
2023-02-28T02:03:55.080Z,-1.77
2023-02-28T02:04:27.077Z,-1.77
2023-02-28T02:04:59.113Z,-1.77
2023-02-28T02:05:31.018Z,-1.77
2023-02-28T02:06:02.950Z,-1.77
2023-02-28T02:06:35.047Z,-1.77
2023-02-28T02:07:07.016Z,-1.77
2023-02-28T02:07:39.224Z,-1.77
2023-02-28T02:08:10.945Z,-1.77
2023-02-28T02:08:42.893Z,-1.77
2023-02-28T02:09:14.928Z,-1.77
2023-02-28T02:09:46.757Z,-1.77
2023-02-28T02:10:19.323Z,-1.77
2023-02-28T02:10:50.988Z,-1.72
2023-02-28T02:11:22.707Z,-1.72
2023-02-28T02:11:54.862Z,-1.72
2023-02-28T02:12:26.798Z,-1.72
2023-02-28T02:12:58.768Z,-1.72
2023-02-28T02:13:30.664Z,-1.61
2023-02-28T02:14:02.606Z,-1.61
2023-02-28T02:14:34.617Z,-1.61
2023-02-28T02:15:07.005Z,-1.61
2023-02-28T02:15:38.683Z,-1.61
2023-02-28T02:16:10.618Z,-1.50
2023-02-28T02:16:42.536Z,-1.50
2023-02-28T02:17:14.573Z,-1.50
2023-02-28T02:17:46.840Z,-1.50
2023-02-28T02:18:18.430Z,-1.50
2023-02-28T02:18:50.642Z,-1.50
2023-02-28T02:19:22.489Z,-1.61
2023-02-28T02:19:54.348Z,-1.61
2023-02-28T02:20:26.341Z,-1.61
2023-02-28T02:20:58.397Z,-1.61
2023-02-28T02:21:30.741Z,-1.61
2023-02-28T02:22:02.222Z,-1.61
2023-02-28T02:22:34.257Z,-1.50
2023-02-28T02:23:06.678Z,-1.50
2023-02-28T02:23:38.335Z,-1.50
2023-02-28T02:24:10.141Z,-1.61
2023-02-28T02:24:42.215Z,-1.61
2023-02-28T02:25:14.240Z,-1.61
2023-02-28T02:25:46.227Z,-1.61
2023-02-28T02:26:18.065Z,-1.61
2023-02-28T02:26:50.468Z,-1.61
2023-02-28T02:27:22.139Z,-1.61
2023-02-28T02:27:54.181Z,-1.61
2023-02-28T02:28:25.958Z,-1.61
2023-02-28T02:28:58.191Z,-1.61
2023-02-28T02:29:30.009Z,-1.61
2023-02-28T02:30:02.194Z,-1.61
2023-02-28T02:30:33.885Z,-1.61
2023-02-28T02:31:05.974Z,-1.61
2023-02-28T02:31:38.181Z,-1.61
2023-02-28T02:32:10.136Z,-1.61
2023-02-28T02:32:41.787Z,-1.61
2023-02-28T02:33:13.826Z,-1.61
2023-02-28T02:33:45.836Z,-1.61
2023-02-28T02:34:17.909Z,-1.72
2023-02-28T02:34:49.679Z,-1.72
2023-02-28T02:35:21.764Z,-1.72
2023-02-28T02:35:53.828Z,-1.72
2023-02-28T02:36:25.856Z,-1.72
2023-02-28T02:36:57.613Z,-1.61
2023-02-28T02:37:29.659Z,-1.61
2023-02-28T02:38:01.874Z,-1.61
2023-02-28T02:38:33.914Z,-1.61
2023-02-28T02:39:05.537Z,-1.61
2023-02-28T02:39:37.546Z,-1.72
2023-02-28T02:40:09.571Z,-1.72
2023-02-28T02:40:41.608Z,-1.72
2023-02-28T02:41:13.459Z,-1.72
2023-02-28T02:41:45.692Z,-1.72
2023-02-28T02:42:17.516Z,-1.72
2023-02-28T02:42:49.544Z,-1.72
2023-02-28T02:43:21.596Z,-1.72
2023-02-28T02:43:53.416Z,-1.72
2023-02-28T02:44:25.409Z,-1.72
2023-02-28T02:44:57.462Z,-1.72
2023-02-28T02:45:29.435Z,-1.72
2023-02-28T02:46:01.304Z,-1.72
2023-02-28T02:46:33.357Z,-1.61
2023-02-28T02:47:05.407Z,-1.61
2023-02-28T02:47:37.193Z,-1.61
2023-02-28T02:48:09.589Z,-1.61
2023-02-28T02:48:41.270Z,-1.61
2023-02-28T02:49:13.273Z,-1.61
2023-02-28T02:49:45.081Z,-1.72
2023-02-28T02:50:17.131Z,-1.72
2023-02-28T02:50:49.195Z,-1.72
2023-02-28T02:51:21.155Z,-1.61
2023-02-28T02:51:53.086Z,-1.61
2023-02-28T02:52:25.030Z,-1.61
2023-02-28T02:52:57.098Z,-1.61
2023-02-28T02:53:28.914Z,-1.61
2023-02-28T02:54:01.022Z,-1.72
2023-02-28T02:54:32.949Z,-1.72
2023-02-28T02:55:04.972Z,-1.72
2023-02-28T02:55:37.114Z,-1.61
2023-02-28T02:56:08.905Z,-1.61
2023-02-28T02:56:40.929Z,-1.61
2023-02-28T02:57:12.898Z,-1.61
2023-02-28T02:57:44.736Z,-1.61
2023-02-28T02:58:16.743Z,-1.61
2023-02-28T02:58:48.778Z,-1.61
2023-02-28T02:59:20.894Z,-1.61
2023-02-28T02:59:52.693Z,-1.61
2023-02-28T03:00:24.808Z,-1.61
2023-02-28T03:00:56.751Z,-1.61
2023-02-28T03:01:29.433Z,-1.61
2023-02-28T03:02:00.766Z,-1.61
2023-02-28T03:02:32.673Z,-1.61
2023-02-28T03:03:04.615Z,-1.61
2023-02-28T03:03:36.663Z,-1.61
2023-02-28T03:04:08.532Z,-1.61
2023-02-28T03:04:40.549Z,-1.61
2023-02-28T03:05:12.544Z,-1.61
2023-02-28T03:05:44.537Z,-1.61
2023-02-28T03:06:16.371Z,-1.50
2023-02-28T03:06:48.442Z,-1.50
2023-02-28T03:07:20.567Z,-1.50
2023-02-28T03:07:52.509Z,-1.50
2023-02-28T03:08:24.273Z,-1.50
2023-02-28T03:08:56.316Z,-1.50
2023-02-28T03:09:28.365Z,-1.50
2023-02-28T03:10:00.503Z,-1.50
2023-02-28T03:10:32.203Z,-1.50
2023-02-28T03:11:04.231Z,-1.50
2023-02-28T03:11:36.281Z,-1.50
2023-02-28T03:12:08.282Z,-1.38
2023-02-28T03:12:40.151Z,-1.38
2023-02-28T03:13:12.164Z,-1.38
2023-02-28T03:13:44.178Z,-1.38
2023-02-28T03:14:16.368Z,-1.38
2023-02-28T03:14:48.112Z,-1.38
2023-02-28T03:15:20.264Z,-1.38
2023-02-28T03:15:52.150Z,-1.38
2023-02-28T03:16:24.169Z,-1.38
2023-02-28T03:16:56.165Z,-1.38
2023-02-28T03:17:28.067Z,-1.38
2023-02-28T03:18:00.275Z,-1.38
2023-02-28T03:18:32.016Z,-1.38
2023-02-28T03:19:04.122Z,-1.38
2023-02-28T03:19:36.047Z,-1.38
2023-02-28T03:20:08.561Z,-1.38
2023-02-28T03:20:40.059Z,-1.38
2023-02-28T03:21:11.866Z,-1.38
2023-02-28T03:21:44.138Z,-1.38
2023-02-28T03:22:16.040Z,-1.38
2023-02-28T03:22:47.682Z,-1.38
2023-02-28T03:23:19.726Z,-1.38
2023-02-28T03:23:51.747Z,-1.38
2023-02-28T03:24:23.761Z,-1.38
2023-02-28T03:24:55.773Z,-1.38
2023-02-28T03:25:27.613Z,-1.38
2023-02-28T03:25:59.755Z,-1.38
2023-02-28T03:26:31.652Z,-1.38
2023-02-28T03:27:03.560Z,-1.38
2023-02-28T03:27:35.508Z,-1.38
2023-02-28T03:28:07.550Z,-1.38
2023-02-28T03:28:39.563Z,-1.38
2023-02-28T03:29:11.397Z,-1.38
2023-02-28T03:29:43.531Z,-1.38
2023-02-28T03:30:15.602Z,-1.38
2023-02-28T03:30:47.484Z,-1.38
2023-02-28T03:31:19.505Z,-1.38
2023-02-28T03:31:51.553Z,-1.38
2023-02-28T03:32:23.494Z,-1.38
2023-02-28T03:32:55.519Z,-1.38
2023-02-28T03:33:27.455Z,-1.38
2023-02-28T03:33:59.270Z,-1.38
2023-02-28T03:34:31.292Z,-1.38
2023-02-28T03:35:04.237Z,-1.38
2023-02-28T03:35:35.219Z,-1.38
2023-02-28T03:36:07.200Z,-1.38
2023-02-28T03:36:39.235Z,-1.38
2023-02-28T03:37:11.349Z,-1.38
2023-02-28T03:37:43.269Z,-1.38
2023-02-28T03:38:15.092Z,-1.38
2023-02-28T03:38:47.127Z,-1.27
2023-02-28T03:39:19.222Z,-1.27
2023-02-28T03:39:51.103Z,-1.27
2023-02-28T03:40:23.029Z,-1.27
2023-02-28T03:40:55.043Z,-1.27
2023-02-28T03:41:27.386Z,-1.27
2023-02-28T03:41:58.935Z,-1.27
2023-02-28T03:42:30.979Z,-1.27
2023-02-28T03:43:02.992Z,-1.27
2023-02-28T03:43:35.101Z,-1.27
2023-02-28T03:44:06.888Z,-1.27
2023-02-28T03:44:38.885Z,-1.27
2023-02-28T03:45:11.130Z,-1.27
2023-02-28T03:45:42.786Z,-1.27
2023-02-28T03:46:14.827Z,-1.27
2023-02-28T03:46:46.805Z,-1.27
2023-02-28T03:47:18.893Z,-1.27
2023-02-28T03:47:50.864Z,-1.27
2023-02-28T03:48:22.790Z,-1.27
2023-02-28T03:48:54.910Z,-1.27
2023-02-28T03:49:26.870Z,-1.27
2023-02-28T03:49:58.564Z,-1.27
2023-02-28T03:50:30.820Z,-1.27
2023-02-28T03:51:02.810Z,-1.27
2023-02-28T03:51:34.659Z,-1.27
2023-02-28T03:52:06.839Z,-1.27
2023-02-28T03:52:38.519Z,-1.27
2023-02-28T03:53:10.773Z,-1.27
2023-02-28T03:53:42.676Z,-1.27
2023-02-28T03:54:14.506Z,-1.27
2023-02-28T03:54:46.456Z,-1.27
2023-02-28T03:55:18.477Z,-1.27
2023-02-28T03:55:50.641Z,-1.27
2023-02-28T03:56:22.300Z,-1.22
2023-02-28T03:56:54.338Z,-1.22
2023-02-28T03:57:26.376Z,-1.22
2023-02-28T03:57:58.405Z,-1.22
2023-02-28T03:58:30.277Z,-1.22
2023-02-28T03:59:02.227Z,-1.27
2023-02-28T03:59:34.675Z,-1.27
2023-02-28T04:00:06.574Z,-1.27
2023-02-28T04:00:38.239Z,-1.27
2023-02-28T04:01:10.559Z,-1.27
2023-02-28T04:01:42.577Z,-1.27
2023-02-28T04:02:14.025Z,-1.27
2023-02-28T04:02:46.067Z,-1.27
2023-02-28T04:03:18.152Z,-1.27
2023-02-28T04:03:50.235Z,-1.27
2023-02-28T04:04:21.995Z,-1.27
2023-02-28T04:04:53.962Z,-1.27
2023-02-28T04:05:25.977Z,-1.27
2023-02-28T04:05:58.073Z,-1.27
2023-02-28T04:06:29.831Z,-1.27
2023-02-28T04:07:01.867Z,-1.27
2023-02-28T04:07:33.917Z,-1.38
2023-02-28T04:08:05.943Z,-1.38
2023-02-28T04:08:37.753Z,-1.38
2023-02-28T04:09:41.786Z,-1.38
2023-02-28T04:10:13.881Z,-1.27
2023-02-28T04:10:45.738Z,-1.27
2023-02-28T04:11:17.748Z,-1.27
2023-02-28T04:11:49.778Z,-1.27
2023-02-28T04:12:21.752Z,-1.27
2023-02-28T04:12:53.630Z,-1.27
2023-02-28T04:13:25.766Z,-1.27
2023-02-28T04:13:57.650Z,-1.27
2023-02-28T04:14:29.663Z,-1.27
2023-02-28T04:15:01.742Z,-1.27
2023-02-28T04:15:33.561Z,-1.27
2023-02-28T04:16:05.629Z,-1.27
2023-02-28T04:16:37.609Z,-1.27
2023-02-28T04:17:09.561Z,-1.27
2023-02-28T04:17:41.551Z,-1.27
2023-02-28T04:18:13.687Z,-1.22
2023-02-28T04:18:45.508Z,-1.22
2023-02-28T04:19:17.382Z,-1.22
2023-02-28T04:19:49.377Z,-1.22
2023-02-28T04:20:21.439Z,-1.22
2023-02-28T04:20:53.434Z,-1.22
2023-02-28T04:21:27.467Z,-1.22
2023-02-28T04:21:57.282Z,-1.22
2023-02-28T04:22:29.352Z,-1.22
2023-02-28T04:23:01.448Z,-1.22
2023-02-28T04:23:33.160Z,-1.22
2023-02-28T04:24:05.189Z,-1.22
2023-02-28T04:24:37.209Z,-1.22
2023-02-28T04:25:09.258Z,-1.22
2023-02-28T04:25:41.385Z,-1.22
2023-02-28T04:26:13.332Z,-1.22
2023-02-28T04:26:45.339Z,-1.22
2023-02-28T04:27:17.324Z,-1.22
2023-02-28T04:27:49.058Z,-1.22
2023-02-28T04:28:21.050Z,-1.22
2023-02-28T04:28:53.043Z,-1.22
2023-02-28T04:29:25.127Z,-1.22
2023-02-28T04:29:56.944Z,-1.22
2023-02-28T04:30:29.077Z,-1.22
2023-02-28T04:31:00.997Z,-1.22
2023-02-28T04:31:33.107Z,-1.22
2023-02-28T04:32:04.944Z,-1.22
2023-02-28T04:32:36.919Z,-1.22
2023-02-28T04:33:08.944Z,-1.22
2023-02-28T04:33:40.781Z,-1.22
2023-02-28T04:34:12.726Z,-1.22
2023-02-28T04:34:44.756Z,-1.22
2023-02-28T04:35:16.867Z,-1.22
2023-02-28T04:35:48.905Z,-1.22
2023-02-28T04:36:20.744Z,-1.22
2023-02-28T04:37:10.088Z,-1.22
2023-02-28T04:37:24.722Z,-1.22
2023-02-28T04:37:56.548Z,-1.22
2023-02-28T04:38:28.541Z,-1.22
2023-02-28T04:39:00.667Z,-1.22
2023-02-28T04:39:32.670Z,-1.22
2023-02-28T04:40:04.441Z,-1.22
2023-02-28T04:40:36.536Z,-1.22
2023-02-28T04:41:08.516Z,-1.22
2023-02-28T04:41:41.011Z,-1.22
2023-02-28T04:42:12.377Z,-1.22
2023-02-28T04:42:44.397Z,-1.22
2023-02-28T04:43:16.451Z,-1.22
2023-02-28T04:43:48.498Z,-1.22
2023-02-28T04:44:20.352Z,-1.22
2023-02-28T04:44:52.292Z,-1.22
2023-02-28T04:45:24.494Z,-1.22
2023-02-28T04:45:56.396Z,-1.22
2023-02-28T04:46:28.172Z,-1.22
2023-02-28T04:47:00.264Z,-1.22
2023-02-28T04:47:32.253Z,-1.22
2023-02-28T04:48:04.382Z,-1.22
2023-02-28T04:48:36.112Z,-1.11
2023-02-28T04:49:08.278Z,-1.11
2023-02-28T04:49:40.274Z,-1.11
2023-02-28T04:50:12.208Z,-1.11
2023-02-28T04:50:44.025Z,-1.11
2023-02-28T04:51:16.087Z,-1.11
2023-02-28T04:51:48.202Z,-1.11
2023-02-28T04:52:20.121Z,-1.11
2023-02-28T04:52:51.945Z,-1.11
2023-02-28T04:53:23.947Z,-1.11
2023-02-28T04:53:56.028Z,-1.11
2023-02-28T04:54:28.016Z,-1.11
2023-02-28T04:54:59.842Z,-1.11
2023-02-28T04:55:31.928Z,-1.11
2023-02-28T04:56:03.894Z,-1.11
2023-02-28T04:56:35.926Z,-1.11
2023-02-28T04:57:07.749Z,-1.11
2023-02-28T04:57:39.765Z,-1.11
2023-02-28T04:58:11.823Z,-1.11
2023-02-28T04:58:43.664Z,-1.00
2023-02-28T04:59:15.719Z,-1.00
2023-02-28T04:59:47.746Z,-1.00
2023-02-28T05:00:20.114Z,-1.00
2023-02-28T05:00:51.894Z,-1.00
2023-02-28T05:01:23.593Z,-1.00
2023-02-28T05:01:55.656Z,-.88
2023-02-28T05:02:27.801Z,-.88
2023-02-28T05:02:59.483Z,-.88
2023-02-28T05:03:31.507Z,-.88
2023-02-28T05:04:03.588Z,-.88
2023-02-28T05:04:35.610Z,-1.00
2023-02-28T05:05:07.439Z,-1.00
2023-02-28T05:05:39.466Z,-1.00
2023-02-28T05:06:11.446Z,-1.00
2023-02-28T05:06:43.573Z,-1.00
2023-02-28T05:07:15.329Z,-1.00
2023-02-28T05:07:47.399Z,-1.00
2023-02-28T05:08:19.344Z,-.88
2023-02-28T05:08:51.397Z,-.88
2023-02-28T05:09:23.209Z,-.88
2023-02-28T05:09:55.242Z,-.88
2023-02-28T05:10:27.305Z,-.88
2023-02-28T05:10:59.304Z,-1.00
2023-02-28T05:11:31.532Z,-1.00
2023-02-28T05:12:03.164Z,-1.00
2023-02-28T05:12:35.491Z,-1.00
2023-02-28T05:13:07.330Z,-1.00
2023-02-28T05:13:39.042Z,-1.00
2023-02-28T05:14:11.300Z,-1.00
2023-02-28T05:14:43.080Z,-1.00
2023-02-28T05:15:15.486Z,-1.00
2023-02-28T05:15:47.017Z,-.88
2023-02-28T05:16:19.140Z,-.88
2023-02-28T05:16:51.038Z,-.88
2023-02-28T05:17:23.031Z,-.88
2023-02-28T05:17:54.883Z,-.88
2023-02-28T05:18:26.929Z,-.88
2023-02-28T05:18:58.985Z,-.88
2023-02-28T05:19:31.025Z,-.88
2023-02-28T05:20:14.686Z,-.77
2023-02-28T05:20:35.126Z,-.77
2023-02-28T05:21:06.860Z,-.77
2023-02-28T05:21:38.791Z,-.72
2023-02-28T05:22:10.973Z,-.72
2023-02-28T05:22:42.746Z,-.72
2023-02-28T05:23:14.804Z,-.72
2023-02-28T05:23:48.161Z,-.77
2023-02-28T05:24:18.633Z,-.77
2023-02-28T05:24:50.763Z,-.77
2023-02-28T05:25:22.824Z,-.77
2023-02-28T05:25:54.685Z,-.77
2023-02-28T05:26:26.635Z,-.77
2023-02-28T05:26:59.052Z,-.77
2023-02-28T05:27:30.751Z,-.77
2023-02-28T05:28:02.623Z,-.77
2023-02-28T05:28:34.544Z,-.77
2023-02-28T05:29:06.877Z,-.77
2023-02-28T05:29:38.714Z,-.77
2023-02-28T05:30:10.554Z,-.77
2023-02-28T05:30:42.474Z,-.77
2023-02-28T05:31:14.611Z,-.77
2023-02-28T05:31:46.598Z,-.77
2023-02-28T05:32:18.316Z,-.77
2023-02-28T05:32:50.418Z,-.77
2023-02-28T05:33:22.296Z,-.77
2023-02-28T05:33:54.347Z,-.77
2023-02-28T05:34:26.148Z,-.77
2023-02-28T05:34:58.292Z,-.77
2023-02-28T05:35:30.280Z,-.77
2023-02-28T05:36:02.600Z,-.72
2023-02-28T05:36:34.083Z,-.72
2023-02-28T05:37:06.161Z,-.72
2023-02-28T05:37:38.135Z,-.72
2023-02-28T05:38:10.188Z,-.72
2023-02-28T05:38:42.131Z,-.72
2023-02-28T05:39:14.312Z,-.77
2023-02-28T05:39:46.055Z,-.77
2023-02-28T05:40:18.111Z,-.72
2023-02-28T05:40:49.920Z,-.72
2023-02-28T05:41:21.942Z,-.72
2023-02-28T05:41:53.966Z,-.72
2023-02-28T05:42:25.977Z,-.72
2023-02-28T05:42:57.850Z,-.72
2023-02-28T05:43:29.834Z,-.72
2023-02-28T05:44:02.360Z,-.72
2023-02-28T05:44:34.003Z,-.72
2023-02-28T05:45:06.172Z,-.72
2023-02-28T05:45:37.814Z,-.72
2023-02-28T05:46:09.987Z,-.61
2023-02-28T05:46:41.636Z,-.61
2023-02-28T05:47:13.719Z,-.61
2023-02-28T05:47:45.738Z,-.61
2023-02-28T05:48:17.737Z,-.61
2023-02-28T05:48:49.690Z,-.61
2023-02-28T05:49:21.630Z,-.61
2023-02-28T05:49:53.839Z,-.61
2023-02-28T05:50:25.831Z,-.61
2023-02-28T05:50:57.571Z,-.61
2023-02-28T05:51:29.944Z,-.61
2023-02-28T05:52:01.641Z,-.72
2023-02-28T05:52:33.670Z,-.72
2023-02-28T05:53:05.406Z,-.72
2023-02-28T05:53:37.455Z,-.72
2023-02-28T05:54:09.446Z,-.72
2023-02-28T05:54:41.473Z,-.61
2023-02-28T05:55:13.347Z,-.61
2023-02-28T05:55:45.353Z,-.61
2023-02-28T05:56:17.379Z,-.61
2023-02-28T05:56:49.378Z,-.61
2023-02-28T05:57:24.657Z,-.61
2023-02-28T05:57:53.280Z,-.72
2023-02-28T05:58:25.404Z,-.72
2023-02-28T05:58:57.316Z,-.72
2023-02-28T05:59:29.270Z,-.72
2023-02-28T06:00:01.704Z,-.61
2023-02-28T06:00:33.839Z,-.61
2023-02-28T06:01:05.160Z,-.61
2023-02-28T06:01:37.139Z,-.61
2023-02-28T06:02:09.479Z,-.61
2023-02-28T06:02:41.216Z,-.61
2023-02-28T06:03:13.072Z,-.72
2023-02-28T06:03:45.049Z,-.72
2023-02-28T06:04:30.724Z,-.72
2023-02-28T06:04:51.042Z,-.72
2023-02-28T06:05:21.181Z,-.72
2023-02-28T06:05:52.915Z,-.72
2023-02-28T06:06:24.931Z,-.72
2023-02-28T06:06:56.958Z,-.72
2023-02-28T06:07:28.778Z,-.72
2023-02-28T06:08:00.927Z,-.72
2023-02-28T06:08:32.860Z,-.72
2023-02-28T06:09:04.862Z,-.72
2023-02-28T06:09:36.704Z,-.72
2023-02-28T06:10:08.745Z,-.72
2023-02-28T06:10:40.852Z,-.72
2023-02-28T06:11:12.855Z,-.72
2023-02-28T06:11:44.961Z,-.72
2023-02-28T06:12:16.856Z,-.72
2023-02-28T06:12:48.694Z,-.61
2023-02-28T06:13:21.367Z,-.61
2023-02-28T06:13:52.564Z,-.61
2023-02-28T06:14:24.586Z,-.61
2023-02-28T06:14:56.586Z,-.61
2023-02-28T06:15:28.831Z,-.61
2023-02-28T06:16:00.597Z,-.61
2023-02-28T06:16:32.508Z,-.61
2023-02-28T06:17:04.639Z,-.61
2023-02-28T06:17:36.532Z,-.61
2023-02-28T06:18:08.373Z,-.61
2023-02-28T06:18:40.467Z,-.61
2023-02-28T06:19:12.480Z,-.61
2023-02-28T06:19:44.528Z,-.61
2023-02-28T06:20:16.284Z,-.61
2023-02-28T06:20:48.312Z,-.61
2023-02-28T06:21:20.482Z,-.61
2023-02-28T06:21:52.376Z,-.61
2023-02-28T06:22:24.194Z,-.61
2023-02-28T06:22:56.243Z,-.61
2023-02-28T06:23:28.240Z,-.61
2023-02-28T06:24:00.368Z,-.72
2023-02-28T06:24:32.129Z,-.72
2023-02-28T06:25:04.262Z,-.61
2023-02-28T06:25:36.281Z,-.61
2023-02-28T06:26:08.122Z,-.61
2023-02-28T06:26:40.145Z,-.61
2023-02-28T06:27:12.097Z,-.61
2023-02-28T06:27:44.112Z,-.61
2023-02-28T06:28:16.119Z,-.61
2023-02-28T06:28:47.948Z,-.61
2023-02-28T06:29:19.980Z,-.61
2023-02-28T06:29:52.102Z,-.50
2023-02-28T06:30:23.971Z,-.50
2023-02-28T06:30:55.905Z,-.50
2023-02-28T06:31:28.279Z,-.50
2023-02-28T06:32:00.010Z,-.38
2023-02-28T06:32:31.771Z,-.38
2023-02-28T06:33:03.816Z,-.38
2023-02-28T06:33:36.109Z,-.38
2023-02-28T06:34:07.969Z,-.38
2023-02-28T06:34:39.764Z,-.38
2023-02-28T06:35:11.733Z,-.38
2023-02-28T06:35:43.848Z,-.38
2023-02-28T06:36:15.757Z,-.38
2023-02-28T06:36:47.601Z,-.38
2023-02-28T06:37:19.599Z,-.38
2023-02-28T06:37:51.814Z,-.38
2023-02-28T06:38:23.664Z,-.38
2023-02-28T06:38:55.661Z,-.38
2023-02-28T06:39:28.583Z,-.38
2023-02-28T06:39:59.606Z,-.38
2023-02-28T06:40:31.612Z,-.27
2023-02-28T06:41:03.419Z,-.27
2023-02-28T06:41:51.761Z,-.27
2023-02-28T06:42:07.524Z,-.27
2023-02-28T06:42:39.740Z,-.27
2023-02-28T06:43:11.575Z,-.27
2023-02-28T06:43:43.497Z,-.27
2023-02-28T06:44:15.608Z,-.27
2023-02-28T06:44:47.512Z,-.22
2023-02-28T06:45:19.415Z,-.22
2023-02-28T06:45:51.454Z,-.22
2023-02-28T06:46:23.374Z,-.11
2023-02-28T06:46:55.186Z,-.11
2023-02-28T06:47:27.184Z,-.11
2023-02-28T06:47:59.360Z,-.11
2023-02-28T06:48:31.257Z,-.11
2023-02-28T06:49:03.152Z,-.11
2023-02-28T06:49:36.051Z,-.11
2023-02-28T06:50:07.125Z,-.11
2023-02-28T06:50:39.167Z,-.11
2023-02-28T06:51:11.107Z,-.11
2023-02-28T06:51:43.159Z,-.11
2023-02-28T06:52:15.046Z,-.11
2023-02-28T06:52:47.078Z,0
2023-02-28T06:53:18.949Z,0
2023-02-28T06:53:50.972Z,0
2023-02-28T06:54:23.083Z,.11
2023-02-28T06:54:54.816Z,.11
2023-02-28T06:55:26.857Z,.11
2023-02-28T06:55:58.857Z,.11